Time;durP1;ratioP1;P1;durP2;ratioP2;P2;SDS_P1;SDS_P2;PMS_P1;PMS_P2;Temp;Humidity;BMP_temperature;BMP_pressure;BME280_temperature;BME280_humidity;BME280_pressure;Samples;Min_cycle;Max_cycle;Signal;HPM_P1;HPM_P2
2021/01/30 00:00:11;;;;;;;;;;;8.70;87.10;;;;;;5032778;27;120158;-89
2021/01/30 00:02:36;;;;;;;;;;;8.70;87.20;;;;;;5032779;27;119555;-89
2021/01/30 00:05:02;;;;;;;;;;;8.70;87.30;;;;;;5033470;27;117508;-89
2021/01/30 00:07:27;;;;;;;;;;;8.70;87.00;;;;;;5033782;27;117454;-89
2021/01/30 00:09:53;;;;;;;;;;;8.70;87.10;;;;;;5032755;27;121196;-89
2021/01/30 00:12:18;;;;;;;;;;;8.70;87.20;;;;;;5032667;27;119116;-89
2021/01/30 00:14:44;;;;;;;;;;;8.70;87.10;;;;;;5033512;27;117607;-89
2021/01/30 00:17:09;;;;;;;;;;;8.70;87.20;;;;;;5033210;27;117361;-90
2021/01/30 00:19:35;;;;;;;;;;;8.70;87.10;;;;;;5032377;27;121266;-89
2021/01/30 00:22:01;;;;;;;;;;;8.70;87.00;;;;;;5032674;27;119517;-89
2021/01/30 00:24:27;;;;;;;;;;;8.70;87.00;;;;;;5033298;27;117344;-89
2021/01/30 00:26:54;;;;;;;;;;;8.70;86.90;;;;;;5033629;27;117282;-89
2021/01/30 00:29:20;;;;;;;;;;;8.70;87.00;;;;;;5032403;27;120004;-89
2021/01/30 00:31:45;;;;;;;;;;;8.70;87.00;;;;;;5032232;27;119317;-89
2021/01/30 00:34:11;;;;;;;;;;;8.70;87.00;;;;;;5033415;27;117822;-89
2021/01/30 00:36:36;;;;;;;;;;;8.70;87.00;;;;;;5033360;27;117838;-89
2021/01/30 00:39:03;;;;;;;;;;;8.70;87.00;;;;;;5032201;27;121022;-89
2021/01/30 00:41:28;;;;;;;;;;;8.70;87.00;;;;;;5031558;27;119419;-89
2021/01/30 00:43:54;;;;;;;;;;;8.70;87.00;;;;;;5032861;27;117875;-89
2021/01/30 00:46:19;;;;;;;;;;;8.70;86.90;;;;;;5033340;27;117483;-89
2021/01/30 00:48:45;;;;;;;;;;;8.70;86.90;;;;;;5031454;27;120121;-89
2021/01/30 00:51:10;;;;;;;;;;;8.70;86.90;;;;;;5031818;27;119198;-89
2021/01/30 00:53:36;;;;;;;;;;;8.70;87.00;;;;;;5032681;27;117605;-89
2021/01/30 00:56:01;;;;;;;;;;;8.70;87.00;;;;;;5033182;27;117866;-89
2021/01/30 00:58:27;;;;;;;;;;;8.70;87.00;;;;;;5031203;27;120881;-89
2021/01/30 01:00:52;;;;;;;;;;;8.70;87.10;;;;;;5031174;27;119243;-89
2021/01/30 01:03:18;;;;;;;;;;;8.70;87.10;;;;;;5032502;27;117326;-89
2021/01/30 01:05:44;;;;;;;;;;;8.70;87.00;;;;;;5032365;27;117895;-89
2021/01/30 01:08:09;;;;;;;;;;;8.70;87.00;;;;;;5031507;27;120236;-89
2021/01/30 01:10:35;;;;;;;;;;;8.70;86.80;;;;;;5031661;27;120091;-90
2021/01/30 01:13:00;;;;;;;;;;;8.70;86.80;;;;;;5033011;27;117543;-89
2021/01/30 01:15:26;;;;;;;;;;;8.70;86.70;;;;;;5032686;27;117852;-89
2021/01/30 01:17:51;;;;;;;;;;;8.70;86.80;;;;;;5031256;27;120088;-89
2021/01/30 01:20:18;;;;;;;;;;;8.70;86.80;;;;;;5031641;27;120309;-89
2021/01/30 01:22:43;;;;;;;;;;;8.70;86.80;;;;;;5032638;27;117460;-89
2021/01/30 01:25:09;;;;;;;;;;;8.70;86.60;;;;;;5033078;27;117882;-89
2021/01/30 01:27:35;;;;;;;;;;;8.70;86.60;;;;;;5031319;27;121200;-89
2021/01/30 01:30:00;;;;;;;;;;;8.70;86.80;;;;;;5030760;27;119537;-89
2021/01/30 01:32:26;;;;;;;;;;;8.70;86.40;;;;;;5031986;27;117636;-90
2021/01/30 01:34:51;;;;;;;;;;;8.70;86.50;;;;;;5032522;27;117736;-89
2021/01/30 01:37:17;;;;;;;;;;;8.70;86.50;;;;;;5030897;27;120132;-90
2021/01/30 01:39:42;;;;;;;;;;;8.70;86.60;;;;;;5031136;27;119036;-89
2021/01/30 01:42:15;;;;;;;;;;;8.60;86.60;;;;;;5032224;27;117595;-89
2021/01/30 01:44:42;;;;;;;;;;;8.70;86.50;;;;;;5032445;27;117726;-90
2021/01/30 01:47:09;;;;;;;;;;;8.70;86.50;;;;;;5031266;27;120274;-90
2021/01/30 01:49:35;;;;;;;;;;;8.60;86.50;;;;;;5031389;27;119435;-89
2021/01/30 01:52:02;;;;;;;;;;;8.70;86.50;;;;;;5031862;27;117515;-89
2021/01/30 01:54:28;;;;;;;;;;;8.70;86.70;;;;;;5031643;27;117604;-89
2021/01/30 01:56:55;;;;;;;;;;;8.70;86.50;;;;;;5030037;27;121003;-90
2021/01/30 01:59:20;;;;;;;;;;;8.70;86.40;;;;;;5030947;27;120362;-90
2021/01/30 02:01:46;;;;;;;;;;;8.70;86.60;;;;;;5031806;27;117563;-89
2021/01/30 02:04:11;;;;;;;;;;;8.70;86.50;;;;;;5031990;27;117814;-89
2021/01/30 02:06:40;;;;;;;;;;;8.70;86.50;;;;;;5030573;27;137908;-89
2021/01/30 02:09:10;;;;;;;;;;;8.70;86.60;;;;;;5030673;27;120348;-89
2021/01/30 02:11:35;;;;;;;;;;;8.70;86.30;;;;;;5031815;27;117320;-89
2021/01/30 02:14:01;;;;;;;;;;;8.70;86.40;;;;;;5031024;27;117812;-89
2021/01/30 02:16:39;;;;;;;;;;;8.70;86.60;;;;;;5030596;27;120700;-89
2021/01/30 02:19:04;;;;;;;;;;;8.70;86.40;;;;;;5029794;27;119449;-89
2021/01/30 02:21:36;;;;;;;;;;;8.70;86.40;;;;;;5048429;27;117524;-89
2021/01/30 02:24:10;;;;;;;;;;;8.70;86.30;;;;;;5048521;27;117795;-89
2021/01/30 02:26:41;;;;;;;;;;;8.70;86.40;;;;;;5030507;27;121379;-89
2021/01/30 02:29:22;;;;;;;;;;;8.70;86.20;;;;;;5047529;27;120578;-90
2021/01/30 02:31:57;;;;;;;;;;;8.70;86.50;;;;;;5048267;27;117293;-90
2021/01/30 02:34:28;;;;;;;;;;;8.70;86.40;;;;;;5048536;27;117925;-90
2021/01/30 02:36:54;;;;;;;;;;;8.70;86.10;;;;;;5047191;27;121373;-90
2021/01/30 02:39:21;;;;;;;;;;;8.70;86.20;;;;;;5046982;27;120307;-89
2021/01/30 02:41:48;;;;;;;;;;;8.70;86.30;;;;;;5031219;27;117700;-89
2021/01/30 02:44:14;;;;;;;;;;;8.70;86.10;;;;;;5030968;27;117712;-89
2021/01/30 02:46:41;;;;;;;;;;;8.70;86.30;;;;;;5030048;27;119972;-89
2021/01/30 02:49:10;;;;;;;;;;;8.70;86.30;;;;;;5030038;27;119981;-89
2021/01/30 02:51:43;;;;;;;;;;;8.70;86.20;;;;;;5031114;27;117700;-89
2021/01/30 02:54:09;;;;;;;;;;;8.70;86.20;;;;;;5031420;27;117763;-89
2021/01/30 02:56:34;;;;;;;;;;;8.60;86.30;;;;;;5029818;27;120030;-90
2021/01/30 02:59:03;;;;;;;;;;;8.60;86.10;;;;;;5029427;27;119218;-90
2021/01/30 03:01:28;;;;;;;;;;;8.60;85.90;;;;;;5048151;27;117618;-89
2021/01/30 03:03:58;;;;;;;;;;;8.70;86.00;;;;;;5031242;27;118011;-89
2021/01/30 03:06:42;;;;;;;;;;;8.70;86.20;;;;;;5030055;27;120364;-89
2021/01/30 03:09:08;;;;;;;;;;;8.70;85.80;;;;;;5046231;27;119368;-89
2021/01/30 03:11:38;;;;;;;;;;;8.70;86.20;;;;;;5047680;27;117725;-89
2021/01/30 03:14:03;;;;;;;;;;;8.70;85.90;;;;;;5031157;27;117312;-89
2021/01/30 03:16:30;;;;;;;;;;;8.70;86.10;;;;;;5046747;27;120139;-90
2021/01/30 03:18:58;;;;;;;;;;;8.60;86.00;;;;;;5029362;27;118975;-89
2021/01/30 03:21:23;;;;;;;;;;;8.60;85.90;;;;;;5030608;27;117547;-89
2021/01/30 03:23:49;;;;;;;;;;;8.60;86.00;;;;;;5031799;27;117750;-89
2021/01/30 03:26:16;;;;;;;;;;;8.60;85.80;;;;;;5033618;27;120329;-89
2021/01/30 03:28:41;;;;;;;;;;;8.70;85.90;;;;;;5032948;27;120383;-89
2021/01/30 03:31:07;;;;;;;;;;;8.70;86.20;;;;;;5033890;27;117962;-89
2021/01/30 03:33:32;;;;;;;;;;;8.60;86.00;;;;;;5033988;27;117290;-89
2021/01/30 03:35:58;;;;;;;;;;;8.60;85.80;;;;;;5033135;27;121262;-90
2021/01/30 03:38:23;;;;;;;;;;;8.70;85.80;;;;;;5032903;27;120281;-90
2021/01/30 03:40:49;;;;;;;;;;;8.60;85.50;;;;;;5034085;27;117533;-89
2021/01/30 03:43:14;;;;;;;;;;;8.60;85.70;;;;;;5034272;27;117325;-89
2021/01/30 03:45:40;;;;;;;;;;;8.70;86.10;;;;;;5033161;27;120839;-89
2021/01/30 03:48:06;;;;;;;;;;;8.60;85.50;;;;;;5032696;27;119268;-89
2021/01/30 03:50:31;;;;;;;;;;;8.60;85.90;;;;;;5034075;27;117500;-89
2021/01/30 03:52:57;;;;;;;;;;;8.60;85.80;;;;;;5034131;27;117452;-89
2021/01/30 03:55:23;;;;;;;;;;;8.60;85.60;;;;;;5032898;27;121152;-90
2021/01/30 03:57:48;;;;;;;;;;;8.60;85.80;;;;;;5031498;27;119493;-89
2021/01/30 04:00:15;;;;;;;;;;;8.60;85.60;;;;;;5033535;27;117572;-89
2021/01/30 04:02:41;;;;;;;;;;;8.60;85.50;;;;;;5033894;27;117884;-89
2021/01/30 04:05:07;;;;;;;;;;;8.60;85.70;;;;;;5032860;27;120046;-89
2021/01/30 04:07:33;;;;;;;;;;;8.60;85.70;;;;;;5032654;27;118985;-90
2021/01/30 04:09:58;;;;;;;;;;;8.60;86.30;;;;;;5033537;27;117352;-89
2021/01/30 04:12:24;;;;;;;;;;;8.60;85.50;;;;;;5034033;27;117376;-89
2021/01/30 04:14:49;;;;;;;;;;;8.70;85.50;;;;;;5032515;27;120108;-89
2021/01/30 04:17:15;;;;;;;;;;;8.60;85.50;;;;;;5032340;27;118815;-89
2021/01/30 04:19:40;;;;;;;;;;;8.60;85.50;;;;;;5033508;27;117965;-89
2021/01/30 04:22:06;;;;;;;;;;;8.60;85.50;;;;;;5033094;27;117486;-89
2021/01/30 04:24:32;;;;;;;;;;;8.60;85.50;;;;;;5032555;27;120295;-89
2021/01/30 04:26:57;;;;;;;;;;;8.60;85.50;;;;;;5032359;27;119398;-89
2021/01/30 04:29:23;;;;;;;;;;;8.60;85.60;;;;;;5033069;27;117429;-89
2021/01/30 04:31:55;;;;;;;;;;;8.60;85.50;;;;;;5033698;27;117945;-89
2021/01/30 04:34:20;;;;;;;;;;;8.60;85.60;;;;;;5032258;27;120273;-89
2021/01/30 04:36:46;;;;;;;;;;;8.60;85.80;;;;;;5030926;27;120755;-89
2021/01/30 04:39:11;;;;;;;;;;;8.60;85.50;;;;;;5033109;27;117638;-89
2021/01/30 04:41:40;;;;;;;;;;;8.60;85.80;;;;;;5033413;27;117469;-89
2021/01/30 04:44:05;;;;;;;;;;;8.60;85.90;;;;;;5049257;27;120213;-89
2021/01/30 04:46:31;;;;;;;;;;;8.60;85.50;;;;;;5048360;27;119311;-89
2021/01/30 04:49:07;;;;;;;;;;;8.60;85.70;;;;;;5049388;27;117570;-90
2021/01/30 04:51:34;;;;;;;;;;;8.60;85.60;;;;;;5033135;27;117822;-89
2021/01/30 04:54:09;;;;;;;;;;;8.60;85.60;;;;;;5032389;27;121467;-89
2021/01/30 04:56:53;;;;;;;;;;;8.60;85.50;;;;;;5048754;27;120445;-89
2021/01/30 04:59:25;;;;;;;;;;;8.60;85.70;;;;;;5049454;27;117540;-90
2021/01/30 05:01:55;;;;;;;;;;;8.60;85.80;;;;;;5050009;27;117876;-89
2021/01/30 05:04:40;;;;;;;;;;;8.60;85.70;;;;;;5031959;27;121431;-89
2021/01/30 05:07:14;;;;;;;;;;;8.60;85.70;;;;;;5048259;27;119258;-90
2021/01/30 05:09:45;;;;;;;;;;;8.60;85.80;;;;;;5050565;22;117392;-86
2021/01/30 05:12:11;;;;;;;;;;;8.60;85.60;;;;;;5012543;27;117443;-86
2021/01/30 05:14:38;;;;;;;;;;;8.60;85.70;;;;;;5028650;27;122115;-86
2021/01/30 05:17:08;;;;;;;;;;;8.60;85.60;;;;;;5011966;27;120021;-85
2021/01/30 05:19:36;;;;;;;;;;;8.70;85.50;;;;;;5012677;27;117633;-86
2021/01/30 05:22:01;;;;;;;;;;;8.60;85.50;;;;;;5013333;27;117604;-86
2021/01/30 05:24:27;;;;;;;;;;;8.60;85.50;;;;;;5012018;27;120269;-86
2021/01/30 05:26:56;;;;;;;;;;;8.70;85.50;;;;;;5028799;27;117688;-85
2021/01/30 05:29:28;;;;;;;;;;;8.60;85.60;;;;;;5012809;27;117258;-85
2021/01/30 05:31:53;;;;;;;;;;;8.60;85.60;;;;;;5030017;27;117417;-85
2021/01/30 05:34:26;;;;;;;;;;;8.60;85.50;;;;;;5028454;27;119973;-85
2021/01/30 05:36:54;;;;;;;;;;;8.60;85.50;;;;;;5010852;27;119572;-85
2021/01/30 05:39:23;;;;;;;;;;;8.60;85.70;;;;;;5028951;27;117484;-85
2021/01/30 05:41:58;;;;;;;;;;;8.60;85.50;;;;;;5030059;27;117513;-85
2021/01/30 05:44:23;;;;;;;;;;;8.60;85.50;;;;;;5028769;27;120394;-85
2021/01/30 05:46:50;;;;;;;;;;;8.60;85.40;;;;;;5028638;27;119595;-85
2021/01/30 05:49:16;;;;;;;;;;;8.60;85.50;;;;;;5011975;27;117571;-85
2021/01/30 05:51:41;;;;;;;;;;;8.60;85.50;;;;;;5012859;27;117838;-85
2021/01/30 05:54:07;;;;;;;;;;;8.60;85.50;;;;;;5028594;27;120277;-85
2021/01/30 05:56:40;;;;;;;;;;;8.60;85.50;;;;;;5011537;27;119510;-85
2021/01/30 05:59:07;;;;;;;;;;;8.60;85.50;;;;;;5012443;27;117525;-86
2021/01/30 06:01:32;;;;;;;;;;;8.60;85.50;;;;;;5012276;27;117450;-86
2021/01/30 06:04:05;;;;;;;;;;;8.60;85.40;;;;;;5011165;27;121030;-86
2021/01/30 06:06:34;;;;;;;;;;;8.60;85.40;;;;;;5011048;27;119517;-85
2021/01/30 06:09:08;;;;;;;;;;;8.60;85.40;;;;;;5011498;27;117612;-85
2021/01/30 06:11:46;;;;;;;;;;;8.60;85.50;;;;;;5012306;27;117310;-85
2021/01/30 06:14:31;;;;;;;;;;;8.60;85.40;;;;;;5028091;27;117478;-85
2021/01/30 06:16:59;;;;;;;;;;;8.60;85.10;;;;;;5027841;27;119588;-85
2021/01/30 06:19:32;;;;;;;;;;;8.60;85.20;;;;;;5012204;27;117561;-86
2021/01/30 06:22:06;;;;;;;;;;;8.60;85.20;;;;;;5012294;27;117828;-86
2021/01/30 06:24:32;;;;;;;;;;;8.70;85.10;;;;;;5028261;27;121540;-85
2021/01/30 06:27:01;;;;;;;;;;;8.70;85.20;;;;;;5011186;27;120296;-85
2021/01/30 06:29:27;;;;;;;;;;;8.70;85.20;;;;;;5012841;27;117508;-85
2021/01/30 06:31:52;;;;;;;;;;;8.60;85.20;;;;;;5030078;27;117428;-85
2021/01/30 06:34:34;;;;;;;;;;;8.60;85.10;;;;;;5012286;27;121342;-86
2021/01/30 06:37:00;;;;;;;;;;;8.60;85.10;;;;;;5012326;27;119755;-85
2021/01/30 06:39:35;;;;;;;;;;;8.60;85.70;;;;;;5013041;27;117660;-86
2021/01/30 06:42:28;;;;;;;;;;;8.60;85.10;;;;;;5013164;27;117690;-85
2021/01/30 06:45:20;;;;;;;;;;;8.70;85.40;;;;;;5012602;27;120162;-85
2021/01/30 06:47:49;;;;;;;;;;;8.70;85.20;;;;;;5024355;27;121427;-86
2021/01/30 06:50:26;;;;;;;;;;;8.60;85.10;;;;;;5013518;27;117346;-86
2021/01/30 06:52:52;;;;;;;;;;;8.70;85.10;;;;;;5048843;27;117419;-86
2021/01/30 06:55:18;;;;;;;;;;;8.60;85.10;;;;;;5012465;27;120686;-85
2021/01/30 06:57:51;;;;;;;;;;;8.70;85.00;;;;;;5012209;27;119598;-85
2021/01/30 07:00:20;;;;;;;;;;;8.70;85.20;;;;;;5012069;27;117699;-86
2021/01/30 07:02:47;;;;;;;;;;;8.70;85.10;;;;;;5030350;27;117464;-86
2021/01/30 07:05:32;;;;;;;;;;;8.70;85.10;;;;;;5012144;27;120863;-85
2021/01/30 07:08:04;;;;;;;;;;;8.70;85.10;;;;;;5012757;27;119431;-86
2021/01/30 07:10:48;;;;;;;;;;;8.70;84.90;;;;;;5030384;27;117840;-86
2021/01/30 07:13:20;;;;;;;;;;;8.70;85.10;;;;;;5030696;27;117890;-86
2021/01/30 07:16:12;;;;;;;;;;;8.70;85.20;;;;;;5011981;27;120456;-85
2021/01/30 07:18:45;;;;;;;;;;;8.70;85.00;;;;;;5022867;27;120658;-86
2021/01/30 07:21:21;;;;;;;;;;;8.70;85.20;;;;;;5029231;27;117401;-87
2021/01/30 07:24:16;;;;;;;;;;;8.70;85.00;;;;;;5011382;27;117266;-86
2021/01/30 07:26:51;;;;;;;;;;;8.70;84.90;;;;;;5004157;27;120022;-86
2021/01/30 07:29:21;;;;;;;;;;;8.60;84.90;;;;;;5009448;27;118988;-86
2021/01/30 07:31:50;;;;;;;;;;;8.70;85.00;;;;;;5010764;27;117432;-86
2021/01/30 07:34:33;;;;;;;;;;;8.60;84.90;;;;;;5010490;27;117835;-86
2021/01/30 07:37:06;;;;;;;;;;;8.70;85.10;;;;;;5009924;27;121620;-86
2021/01/30 07:39:42;;;;;;;;;;;8.60;85.00;;;;;;5009542;27;119498;-86
2021/01/30 07:42:10;;;;;;;;;;;8.60;84.90;;;;;;5010331;27;117446;-86
2021/01/30 07:44:45;;;;;;;;;;;8.60;84.80;;;;;;5010336;27;117298;-86
2021/01/30 07:47:13;;;;;;;;;;;8.60;84.90;;;;;;5026449;27;119816;-86
2021/01/30 07:49:39;;;;;;;;;;;8.70;84.80;;;;;;5026239;27;117808;-86
2021/01/30 07:52:08;;;;;;;;;;;8.70;84.80;;;;;;5010633;27;117793;-86
2021/01/30 07:54:34;;;;;;;;;;;8.60;84.80;;;;;;5010674;27;117743;-86
2021/01/30 07:57:15;;;;;;;;;;;8.60;84.80;;;;;;5009512;27;120010;-86
2021/01/30 07:59:47;;;;;;;;;;;8.70;84.80;;;;;;5025888;27;120689;-86
2021/01/30 08:02:21;;;;;;;;;;;8.70;85.30;;;;;;5027133;27;117849;-86
2021/01/30 08:04:50;;;;;;;;;;;8.60;84.60;;;;;;5027126;27;117864;-86
2021/01/30 08:07:16;;;;;;;;;;;8.60;84.80;;;;;;5025985;27;117784;-86
2021/01/30 08:09:51;;;;;;;;;;;8.60;84.80;;;;;;5024412;27;119232;-86
2021/01/30 08:12:23;;;;;;;;;;;8.60;84.60;;;;;;5029657;27;117565;-86
2021/01/30 08:15:08;;;;;;;;;;;8.60;84.70;;;;;;5030462;27;117879;-86
2021/01/30 08:17:52;;;;;;;;;;;8.70;84.80;;;;;;5012617;27;120058;-87
2021/01/30 08:20:27;;;;;;;;;;;8.60;84.70;;;;;;5028961;27;120418;-86
2021/01/30 08:23:03;;;;;;;;;;;8.70;84.90;;;;;;5030701;27;117500;-86
2021/01/30 08:25:37;;;;;;;;;;;8.60;84.60;;;;;;5030708;27;117465;-86
2021/01/30 08:28:08;;;;;;;;;;;8.70;84.60;;;;;;5012581;27;122118;-86
2021/01/30 08:30:34;;;;;;;;;;;8.70;84.60;;;;;;5012487;27;118764;-86
2021/01/30 08:33:00;;;;;;;;;;;8.60;84.70;;;;;;5013258;27;117281;-86
2021/01/30 08:35:26;;;;;;;;;;;8.60;84.60;;;;;;5048347;27;117762;-86
2021/01/30 08:37:59;;;;;;;;;;;8.70;84.80;;;;;;5047353;27;117674;-86
2021/01/30 08:40:43;;;;;;;;;;;8.70;84.70;;;;;;5012289;27;120477;-86
2021/01/30 08:43:09;;;;;;;;;;;8.70;84.70;;;;;;5030035;27;117375;-86
2021/01/30 08:45:35;;;;;;;;;;;8.70;84.60;;;;;;5013311;27;117250;-86
2021/01/30 08:48:02;;;;;;;;;;;8.60;84.40;;;;;;5012218;27;120536;-86
2021/01/30 08:50:35;;;;;;;;;;;8.70;84.60;;;;;;5011954;27;119750;-86
2021/01/30 08:53:20;;;;;;;;;;;8.70;84.60;;;;;;5012866;27;117645;-86
2021/01/30 08:55:46;;;;;;;;;;;8.70;84.60;;;;;;5030039;27;117730;-86
2021/01/30 08:58:30;;;;;;;;;;;8.70;84.50;;;;;;5047061;27;117499;-86
2021/01/30 09:00:57;;;;;;;;;;;8.70;84.50;;;;;;5028108;27;119143;-86
2021/01/30 09:03:41;;;;;;;;;;;8.70;84.50;;;;;;5012816;27;117730;-86
2021/01/30 09:06:08;;;;;;;;;;;8.70;84.50;;;;;;5029669;27;117235;-86
2021/01/30 09:08:34;;;;;;;;;;;8.60;84.40;;;;;;5011486;27;118134;-86
2021/01/30 09:11:18;;;;;;;;;;;8.60;84.40;;;;;;5011743;27;119510;-85
2021/01/30 09:14:00;;;;;;;;;;;8.60;84.40;;;;;;5029539;27;117393;-85
2021/01/30 09:16:29;;;;;;;;;;;8.70;84.50;;;;;;5012917;27;117301;-85
2021/01/30 09:18:55;;;;;;;;;;;8.70;84.50;;;;;;5011572;27;120477;-85
2021/01/30 09:21:28;;;;;;;;;;;8.70;84.50;;;;;;5011261;27;121396;-85
2021/01/30 09:24:00;;;;;;;;;;;8.70;84.40;;;;;;5012637;27;117845;-86
2021/01/30 09:26:33;;;;;;;;;;;8.70;84.40;;;;;;5029265;27;117226;-86
2021/01/30 09:29:00;;;;;;;;;;;8.70;84.40;;;;;;5028157;27;117761;-86
2021/01/30 09:31:26;;;;;;;;;;;8.70;84.50;;;;;;5011601;27;117307;-86
2021/01/30 09:34:16;;;;;;;;;;;8.70;84.40;;;;;;5012824;27;117400;-86
2021/01/30 09:36:50;;;;;;;;;;;8.70;84.40;;;;;;5029743;27;117426;-86
2021/01/30 09:39:29;;;;;;;;;;;8.70;84.40;;;;;;5029147;27;118739;-86
2021/01/30 09:42:10;;;;;;;;;;;8.70;84.30;;;;;;5028578;27;117233;-86
2021/01/30 09:44:36;;;;;;;;;;;8.70;84.20;;;;;;5012867;27;117495;-86
2021/01/30 09:47:04;;;;;;;;;;;8.70;84.40;;;;;;5013313;27;117817;-86
2021/01/30 09:49:40;;;;;;;;;;;8.70;84.30;;;;;;5011421;27;121417;-86
2021/01/30 09:52:06;;;;;;;;;;;8.70;84.20;;;;;;5011054;27;120372;-86
2021/01/30 09:54:31;;;;;;;;;;;8.70;84.20;;;;;;5012415;27;117631;-86
2021/01/30 09:56:57;;;;;;;;;;;8.70;84.20;;;;;;5013095;27;117754;-86
2021/01/30 09:59:25;;;;;;;;;;;8.70;84.20;;;;;;5011291;27;121214;-87
2021/01/30 10:01:50;;;;;;;;;;;8.70;84.10;;;;;;5011056;27;118534;-87
2021/01/30 10:04:19;;;;;;;;;;;8.70;84.20;;;;;;5012072;27;117859;-87
2021/01/30 10:06:46;;;;;;;;;;;8.70;84.20;;;;;;5029127;27;117461;-87
2021/01/30 10:09:16;;;;;;;;;;;8.70;84.70;;;;;;5010376;27;120569;-87
2021/01/30 10:11:47;;;;;;;;;;;8.70;84.20;;;;;;5011163;27;117361;-87
2021/01/30 10:14:15;;;;;;;;;;;8.70;84.20;;;;;;5028312;27;117192;-87
2021/01/30 10:16:42;;;;;;;;;;;8.70;84.10;;;;;;5011605;27;117485;-87
2021/01/30 10:19:09;;;;;;;;;;;8.70;84.10;;;;;;5010430;27;118693;-87
2021/01/30 10:21:36;;;;;;;;;;;8.70;84.10;;;;;;5010561;27;120624;-87
2021/01/30 10:24:11;;;;;;;;;;;8.70;84.20;;;;;;5011376;27;117342;-87
2021/01/30 10:26:37;;;;;;;;;;;8.70;84.20;;;;;;5028525;27;117700;-87
2021/01/30 10:29:07;;;;;;;;;;;8.70;84.20;;;;;;5010394;27;121550;-87
2021/01/30 10:31:53;;;;;;;;;;;8.70;84.20;;;;;;5010604;27;119966;-87
2021/01/30 10:34:22;;;;;;;;;;;8.70;84.20;;;;;;5010690;27;117451;-87
2021/01/30 10:36:57;;;;;;;;;;;8.70;84.40;;;;;;5046487;27;117842;-86
2021/01/30 10:39:22;;;;;;;;;;;8.70;84.40;;;;;;5026860;27;118824;-87
2021/01/30 10:41:48;;;;;;;;;;;8.70;84.30;;;;;;5009863;27;120514;-87
2021/01/30 10:44:20;;;;;;;;;;;8.70;84.30;;;;;;5011072;27;117515;-87
2021/01/30 10:46:46;;;;;;;;;;;8.70;84.40;;;;;;5011604;27;117809;-87
2021/01/30 10:49:19;;;;;;;;;;;8.70;84.40;;;;;;5010251;27;117464;-87
2021/01/30 10:51:44;;;;;;;;;;;8.70;84.30;;;;;;5010358;27;120229;-87
2021/01/30 10:54:18;;;;;;;;;;;8.70;84.30;;;;;;5010949;27;117541;-87
2021/01/30 10:56:43;;;;;;;;;;;8.80;84.40;;;;;;5011519;27;116832;-86
2021/01/30 10:59:22;;;;;;;;;;;8.80;84.40;;;;;;5010027;27;120462;-87
2021/01/30 11:01:47;;;;;;;;;;;8.70;84.20;;;;;;5009875;27;119880;-87
2021/01/30 11:04:22;;;;;;;;;;;8.80;84.30;;;;;;5010750;27;117535;-87
2021/01/30 11:06:47;;;;;;;;;;;8.80;84.20;;;;;;5010743;27;117665;-87
2021/01/30 11:09:13;;;;;;;;;;;8.80;84.20;;;;;;5009305;27;120037;-87
2021/01/30 11:11:39;;;;;;;;;;;8.80;84.20;;;;;;5026619;27;120139;-87
2021/01/30 11:14:22;;;;;;;;;;;8.70;84.10;;;;;;5010992;27;117556;-87
2021/01/30 11:16:47;;;;;;;;;;;8.80;84.00;;;;;;5011058;27;117340;-87
2021/01/30 11:19:22;;;;;;;;;;;8.80;83.80;;;;;;5009752;27;120203;-87
2021/01/30 11:21:48;;;;;;;;;;;8.80;83.80;;;;;;5026474;27;121127;-87
2021/01/30 11:24:15;;;;;;;;;;;8.70;83.70;;;;;;5010619;27;117285;-87
2021/01/30 11:26:41;;;;;;;;;;;8.70;84.20;;;;;;5028046;27;117696;-87
2021/01/30 11:29:27;;;;;;;;;;;8.80;83.80;;;;;;5009155;27;117828;-87
2021/01/30 11:31:54;;;;;;;;;;;8.80;83.60;;;;;;5025714;27;120851;-87
2021/01/30 11:34:20;;;;;;;;;;;8.80;83.60;;;;;;5010404;27;116855;-87
2021/01/30 11:36:46;;;;;;;;;;;8.80;83.70;;;;;;5027856;27;117786;-87
2021/01/30 11:39:11;;;;;;;;;;;8.80;83.80;;;;;;5009156;27;120333;-87
2021/01/30 11:41:37;;;;;;;;;;;8.80;83.80;;;;;;5009473;27;119509;-87
2021/01/30 11:44:02;;;;;;;;;;;8.80;83.80;;;;;;5010174;27;117520;-87
2021/01/30 11:46:28;;;;;;;;;;;8.80;83.80;;;;;;5013776;27;117554;-87
2021/01/30 11:48:53;;;;;;;;;;;8.80;83.80;;;;;;5013028;27;121482;-87
2021/01/30 11:51:23;;;;;;;;;;;8.80;83.80;;;;;;5012990;27;120817;-87
2021/01/30 11:53:48;;;;;;;;;;;8.80;83.80;;;;;;5013521;27;117517;-87
2021/01/30 11:56:14;;;;;;;;;;;8.80;83.80;;;;;;5013573;27;117450;-87
2021/01/30 11:58:40;;;;;;;;;;;8.80;83.80;;;;;;5012636;27;119927;-87
2021/01/30 12:01:06;;;;;;;;;;;8.80;83.80;;;;;;5012764;27;121011;-87
2021/01/30 12:03:31;;;;;;;;;;;8.80;83.80;;;;;;5013705;27;117526;-87
2021/01/30 12:05:57;;;;;;;;;;;8.80;83.90;;;;;;5014042;27;117909;-87
2021/01/30 12:08:23;;;;;;;;;;;8.80;83.80;;;;;;5012209;27;120117;-87
2021/01/30 12:10:48;;;;;;;;;;;8.80;83.70;;;;;;5012505;27;119273;-87
2021/01/30 12:13:14;;;;;;;;;;;8.80;83.70;;;;;;5013696;27;117263;-86
2021/01/30 12:15:39;;;;;;;;;;;8.80;83.70;;;;;;5013988;27;117825;-87
2021/01/30 12:18:08;;;;;;;;;;;8.80;83.80;;;;;;5012509;27;121328;-87
2021/01/30 12:20:34;;;;;;;;;;;8.80;83.70;;;;;;5011805;27;119088;-87
2021/01/30 12:23:00;;;;;;;;;;;8.80;83.70;;;;;;5013415;27;117305;-87
2021/01/30 12:25:25;;;;;;;;;;;8.80;83.70;;;;;;5013660;27;117314;-87
2021/01/30 12:27:54;;;;;;;;;;;8.80;83.50;;;;;;5012101;27;124093;-87
2021/01/30 12:30:21;;;;;;;;;;;8.80;83.60;;;;;;5012245;27;117716;-87
2021/01/30 12:32:47;;;;;;;;;;;8.80;83.50;;;;;;5013339;27;117354;-87
2021/01/30 12:35:13;;;;;;;;;;;8.80;83.60;;;;;;5013604;27;117430;-87
2021/01/30 12:37:38;;;;;;;;;;;8.80;83.60;;;;;;5012397;27;121709;-87
2021/01/30 12:40:05;;;;;;;;;;;8.80;83.50;;;;;;5012174;27;119481;-87
2021/01/30 12:42:30;;;;;;;;;;;8.80;83.50;;;;;;5013169;27;117559;-87
2021/01/30 12:44:55;;;;;;;;;;;8.80;83.50;;;;;;5029769;27;117405;-87
2021/01/30 12:47:22;;;;;;;;;;;8.80;83.70;;;;;;5011870;27;117446;-87
2021/01/30 12:49:48;;;;;;;;;;;8.80;83.80;;;;;;5029007;27;117427;-87
2021/01/30 12:52:14;;;;;;;;;;;8.80;83.60;;;;;;5012772;27;117680;-87
2021/01/30 12:54:39;;;;;;;;;;;8.80;83.60;;;;;;5013373;27;117566;-87
2021/01/30 12:57:06;;;;;;;;;;;8.80;83.70;;;;;;5011071;27;120087;-87
2021/01/30 12:59:31;;;;;;;;;;;8.80;83.60;;;;;;5011696;27;119514;-87
2021/01/30 17:21:58;;;;;;;;;;;8.70;83.10;;;;;;982367;22;120275;-87
2021/01/30 17:24:23;;;;;;;;;;;8.60;83.10;;;;;;5006302;28;118261;-83
2021/01/30 17:26:49;;;;;;;;;;;8.60;82.90;;;;;;5009615;28;117800;-83
2021/01/30 17:29:15;;;;;;;;;;;8.60;82.90;;;;;;5009518;28;117511;-83
2021/01/30 17:31:40;;;;;;;;;;;8.60;82.90;;;;;;4991141;28;121447;-84
2021/01/30 17:34:06;;;;;;;;;;;8.60;83.00;;;;;;4990907;28;118878;-83
2021/01/30 17:36:31;;;;;;;;;;;8.60;82.90;;;;;;4992431;28;117550;-83
2021/01/30 17:38:57;;;;;;;;;;;8.60;83.00;;;;;;4992693;28;117393;-84
2021/01/30 17:41:23;;;;;;;;;;;8.60;82.90;;;;;;4990792;28;119962;-84
2021/01/30 17:43:48;;;;;;;;;;;8.60;82.90;;;;;;4991015;28;120574;-83
2021/01/30 17:46:14;;;;;;;;;;;8.60;83.00;;;;;;4992276;28;117409;-84
2021/01/30 17:48:40;;;;;;;;;;;8.60;83.00;;;;;;5009411;28;117371;-83
2021/01/30 17:51:05;;;;;;;;;;;8.60;83.00;;;;;;4990873;28;120982;-83
2021/01/30 17:53:31;;;;;;;;;;;8.60;83.00;;;;;;4991215;28;119461;-84
2021/01/30 17:55:56;;;;;;;;;;;8.60;83.00;;;;;;5009013;28;117393;-83
2021/01/30 17:58:22;;;;;;;;;;;8.70;83.10;;;;;;4991840;28;117300;-83
2021/01/30 18:00:47;;;;;;;;;;;8.60;83.00;;;;;;4990898;28;121253;-83
2021/01/30 18:03:13;;;;;;;;;;;8.60;83.00;;;;;;4991069;28;119541;-83
2021/01/30 18:05:41;;;;;;;;;;;8.60;83.00;;;;;;4991754;28;117463;-83
2021/01/30 18:08:08;;;;;;;;;;;8.60;83.00;;;;;;4992167;28;117479;-84
2021/01/30 18:10:33;;;;;;;;;;;8.60;83.20;;;;;;4990737;28;120347;-84
2021/01/30 18:12:59;;;;;;;;;;;8.60;83.10;;;;;;5007720;28;117799;-83
2021/01/30 18:15:24;;;;;;;;;;;8.60;83.00;;;;;;4991846;28;117368;-83
2021/01/30 18:17:51;;;;;;;;;;;8.60;83.10;;;;;;5009214;28;117295;-84
2021/01/30 18:20:19;;;;;;;;;;;8.60;82.90;;;;;;5007164;28;121464;-84
2021/01/30 18:22:45;;;;;;;;;;;8.60;83.00;;;;;;4989778;28;119448;-83
2021/01/30 18:25:11;;;;;;;;;;;8.60;83.00;;;;;;4988395;28;117444;-84
2021/01/30 18:27:36;;;;;;;;;;;8.60;83.00;;;;;;4988535;28;117458;-83
2021/01/30 18:30:03;;;;;;;;;;;8.60;83.00;;;;;;4987090;28;121200;-84
2021/01/30 18:32:29;;;;;;;;;;;8.60;83.00;;;;;;4987154;28;120374;-84
2021/01/30 18:34:54;;;;;;;;;;;8.60;82.90;;;;;;4988205;28;117383;-84
2021/01/30 18:37:20;;;;;;;;;;;8.60;83.00;;;;;;5005292;28;117359;-84
2021/01/30 18:39:47;;;;;;;;;;;8.60;83.00;;;;;;4987188;28;121414;-84
2021/01/30 18:42:12;;;;;;;;;;;8.60;83.60;;;;;;4987180;28;119815;-84
2021/01/30 18:44:38;;;;;;;;;;;8.60;83.00;;;;;;4987777;28;117418;-84